createdAt,value
2022-08-19T00:01:37.928Z,20.42
2022-08-19T00:04:09.397Z,20.39
2022-08-19T00:06:37.524Z,20.40
2022-08-19T00:09:08.055Z,20.34
2022-08-19T00:11:36.883Z,20.34
2022-08-19T00:14:05.021Z,20.37
2022-08-19T00:16:31.593Z,20.40
2022-08-19T00:18:58.106Z,20.43
2022-08-19T00:21:26.859Z,20.33
2022-08-19T00:23:54.798Z,20.26
2022-08-19T00:26:21.586Z,20.23
2022-08-19T00:28:48.084Z,20.18
2022-08-19T00:31:14.585Z,20.16
2022-08-19T00:33:40.979Z,20.15
2022-08-19T00:36:10.402Z,20.13
2022-08-19T00:38:38.952Z,20.13
2022-08-19T00:41:06.848Z,20.16
2022-08-19T00:43:34.266Z,20.18
2022-08-19T00:46:00.858Z,20.14
2022-08-19T00:48:27.475Z,20.16
2022-08-19T00:50:56.669Z,20.14
2022-08-19T00:53:27.408Z,20.14
2022-08-19T00:55:57.908Z,20.14
2022-08-19T00:58:33.042Z,20.17
2022-08-19T01:00:59.860Z,20.15
2022-08-19T01:03:26.379Z,20.17
2022-08-19T01:05:55.026Z,20.16
2022-08-19T01:08:22.391Z,20.21
2022-08-19T01:10:58.876Z,20.27
2022-08-19T01:13:28.721Z,20.28
2022-08-19T01:16:12.179Z,20.31
2022-08-19T01:18:42.298Z,20.28
2022-08-19T01:21:17.828Z,20.27
2022-08-19T01:23:45.491Z,20.31
2022-08-19T01:26:15.925Z,20.33
2022-08-19T01:28:44.092Z,20.32
2022-08-19T01:31:12.533Z,20.32
2022-08-19T01:33:55.643Z,20.32
2022-08-19T01:36:43.208Z,20.33
2022-08-19T01:39:13.455Z,20.35
2022-08-19T01:41:40.090Z,20.41
2022-08-19T01:44:18.370Z,20.39
2022-08-19T01:46:48.249Z,20.44
2022-08-19T01:49:15.785Z,20.40
2022-08-19T01:51:42.260Z,20.33
2022-08-19T01:54:38.935Z,20.36
2022-08-19T01:57:53.910Z,20.30
2022-08-19T02:00:23.351Z,20.30
2022-08-19T02:02:50.057Z,20.27
2022-08-19T02:05:18.869Z,20.18
2022-08-19T02:07:45.722Z,20.18
2022-08-19T02:10:16.812Z,20.18
2022-08-19T02:12:43.541Z,20.16
2022-08-19T02:15:10.653Z,20.17
2022-08-19T02:17:38.147Z,20.12
2022-08-19T02:20:07.127Z,20.10
2022-08-19T02:22:33.987Z,20.10
2022-08-19T02:25:00.868Z,20.09
2022-08-19T02:27:27.538Z,20.12
2022-08-19T02:29:54.479Z,20.15
2022-08-19T02:32:21.002Z,20.10
2022-08-19T02:34:48.706Z,20.06
2022-08-19T02:37:35.048Z,20.08
2022-08-19T02:40:02.470Z,20.10
2022-08-19T02:42:29.899Z,20.13
2022-08-19T02:44:57.034Z,20.18
2022-08-19T02:47:23.479Z,20.17
2022-08-19T02:49:50.814Z,20.19
2022-08-19T02:52:17.561Z,20.19
2022-08-19T02:54:44.961Z,20.14
2022-08-19T02:57:11.666Z,20.11
2022-08-19T02:59:38.077Z,20.12
2022-08-19T03:02:04.607Z,20.09
2022-08-19T03:04:31.010Z,20.05
2022-08-19T03:07:02.579Z,20.03
2022-08-19T03:09:38.402Z,20.08
2022-08-19T03:12:05.770Z,20.04
2022-08-19T03:14:34.060Z,20.04
2022-08-19T03:17:00.686Z,20.08
2022-08-19T03:19:27.166Z,20.09
2022-08-19T03:21:53.704Z,20.09
2022-08-19T03:24:21.105Z,20.14
2022-08-19T03:26:50.989Z,20.12
2022-08-19T03:29:30.294Z,20.12
2022-08-19T03:31:56.961Z,20.09
2022-08-19T03:34:29.861Z,20.10
2022-08-19T03:36:59.061Z,20.11
2022-08-19T03:39:26.664Z,20.12
2022-08-19T03:42:32.205Z,20.02
2022-08-19T03:44:45.490Z,20.01
2022-08-19T03:47:16.920Z,20.02
2022-08-19T03:49:43.769Z,20.07
2022-08-19T03:52:10.289Z,20.08
2022-08-19T03:54:38.926Z,20.10
2022-08-19T03:57:05.990Z,20.15
2022-08-19T03:59:36.211Z,20.10
2022-08-19T04:02:09.586Z,20.06
2022-08-19T04:04:38.386Z,20.03
2022-08-19T04:07:05.542Z,20.08
2022-08-19T04:09:32.044Z,20.08
2022-08-19T04:11:58.810Z,20.12
2022-08-19T04:14:30.414Z,20.12
2022-08-19T04:16:57.664Z,20.14
2022-08-19T04:19:24.259Z,20.12
2022-08-19T04:21:53.653Z,20.12
2022-08-19T04:24:21.465Z,20.09
2022-08-19T04:26:49.291Z,20.02
2022-08-19T04:29:22.697Z,19.99
2022-08-19T04:31:49.773Z,20.02
2022-08-19T04:34:18.706Z,20.08
2022-08-19T04:36:45.914Z,20.10
2022-08-19T04:39:19.375Z,20.08
2022-08-19T04:42:04.933Z,20.13
2022-08-19T04:44:35.744Z,20.10
2022-08-19T04:47:11.236Z,20.09
2022-08-19T04:49:38.158Z,20.08
2022-08-19T04:52:04.580Z,20.05
2022-08-19T04:54:38.587Z,20.05
2022-08-19T04:57:08.413Z,20.05
2022-08-19T04:59:36.166Z,20.05
2022-08-19T05:02:03.719Z,20.06
2022-08-19T05:04:31.882Z,20.08
2022-08-19T05:07:00.888Z,20.10
2022-08-19T05:09:36.190Z,20.13
2022-08-19T05:12:15.551Z,20.14
2022-08-19T05:14:42.037Z,20.15
2022-08-19T05:17:26.541Z,20.18
2022-08-19T05:20:12.721Z,20.23
2022-08-19T05:22:39.407Z,20.21
2022-08-19T05:25:13.867Z,20.21
2022-08-19T05:27:42.220Z,20.21
2022-08-19T05:30:10.131Z,20.21
2022-08-19T05:32:36.716Z,20.25
2022-08-19T05:35:04.812Z,20.24
2022-08-19T05:37:31.301Z,20.27
2022-08-19T05:39:57.823Z,20.32
2022-08-19T05:42:24.363Z,20.36
2022-08-19T05:44:51.746Z,20.38
2022-08-19T05:47:20.653Z,20.36
2022-08-19T05:49:47.849Z,20.35
2022-08-19T05:52:19.504Z,20.41
2022-08-19T05:54:52.117Z,20.44
2022-08-19T05:57:21.606Z,20.50
2022-08-19T05:59:49.421Z,20.54
2022-08-19T06:02:20.146Z,20.56
2022-08-19T06:04:46.895Z,20.58
2022-08-19T06:07:13.379Z,20.61
2022-08-19T06:09:41.275Z,20.66
2022-08-19T06:16:41.167Z,20.87
2022-08-19T06:19:11.596Z,20.89
2022-08-19T06:21:41.421Z,20.94
2022-08-19T06:24:10.995Z,20.94
2022-08-19T06:26:39.859Z,20.98
2022-08-19T06:29:07.713Z,21.05
2022-08-19T06:31:35.985Z,21.07
2022-08-19T06:34:05.201Z,21.05
2022-08-19T06:36:38.350Z,21.08
2022-08-19T06:39:11.161Z,21.08
2022-08-19T06:41:47.127Z,21.07
2022-08-19T06:44:18.923Z,21.03
2022-08-19T06:46:53.693Z,21.06
2022-08-19T06:49:23.137Z,21.06
2022-08-19T06:51:50.397Z,21.17
2022-08-19T06:54:20.268Z,21.20
2022-08-19T06:56:47.789Z,21.23
2022-08-19T06:59:17.378Z,21.30
2022-08-19T07:01:56.168Z,21.33
2022-08-19T07:04:26.289Z,21.44
2022-08-19T07:07:20.194Z,21.54
2022-08-19T07:09:57.172Z,21.61
2022-08-19T07:12:30.636Z,21.68
2022-08-19T07:14:58.711Z,21.70
2022-08-19T07:17:26.029Z,21.77
2022-08-19T07:19:54.481Z,21.67
2022-08-19T07:22:23.430Z,21.71
2022-08-19T07:24:51.980Z,21.73
2022-08-19T07:27:24.284Z,21.80
2022-08-19T07:29:57.358Z,21.75
2022-08-19T07:32:27.535Z,21.68
2022-08-19T07:34:54.686Z,21.87
2022-08-19T07:37:21.192Z,21.90
2022-08-19T07:39:48.253Z,21.88
2022-08-19T07:42:15.427Z,21.84
2022-08-19T07:44:42.680Z,21.82
2022-08-19T07:47:48.779Z,21.75
2022-08-19T07:50:07.888Z,21.80
2022-08-19T07:52:35.238Z,21.78
2022-08-19T07:55:04.661Z,21.65
2022-08-19T07:57:31.311Z,21.52
2022-08-19T07:59:57.894Z,21.46
2022-08-19T08:02:24.433Z,21.43
2022-08-19T08:05:29.239Z,21.41
2022-08-19T08:08:14.436Z,21.37
2022-08-19T08:10:41.057Z,21.38
2022-08-19T08:13:11.002Z,21.37
2022-08-19T08:15:42.673Z,21.37
2022-08-19T08:18:10.163Z,21.41
2022-08-19T08:20:36.596Z,21.43
2022-08-19T08:23:21.767Z,21.45
2022-08-19T08:25:49.387Z,21.46
2022-08-19T08:28:17.621Z,21.44
2022-08-19T08:30:46.672Z,21.54
2022-08-19T08:35:46.721Z,21.50
2022-08-19T08:38:14.093Z,21.54
2022-08-19T08:40:49.669Z,21.58
2022-08-19T08:43:24.321Z,21.48
2022-08-19T08:46:16.218Z,21.49
2022-08-19T08:49:12.974Z,21.45
2022-08-19T08:51:45.105Z,21.45
2022-08-19T08:54:18.762Z,21.41
2022-08-19T08:56:46.826Z,21.45
2022-08-19T08:59:18.128Z,21.46
2022-08-19T09:01:44.610Z,21.46
2022-08-19T09:04:13.999Z,21.46
2022-08-19T09:06:55.931Z,21.41
2022-08-19T09:09:40.481Z,21.40
2022-08-19T09:12:27.039Z,21.33
2022-08-19T09:15:05.249Z,21.26
2022-08-19T09:17:33.494Z,21.28
2022-08-19T09:20:22.085Z,21.27
2022-08-19T09:22:50.197Z,21.27
2022-08-19T09:25:27.054Z,21.25
2022-08-19T09:28:02.882Z,21.27
2022-08-19T09:30:35.743Z,21.24
2022-08-19T09:33:02.285Z,21.20
2022-08-19T09:35:30.764Z,21.23
2022-08-19T09:38:00.406Z,21.22
2022-08-19T09:40:29.980Z,21.23
2022-08-19T09:42:58.093Z,21.38
2022-08-19T09:45:24.854Z,21.56
2022-08-19T09:47:54.466Z,21.74
2022-08-19T09:50:22.769Z,21.89
2022-08-19T09:52:57.132Z,21.91
2022-08-19T09:55:32.053Z,21.88
2022-08-19T09:58:01.302Z,21.85
2022-08-19T10:00:27.910Z,21.89
2022-08-19T10:02:54.392Z,21.87
2022-08-19T10:05:42.536Z,21.88
2022-08-19T10:08:13.827Z,21.89
2022-08-19T10:10:46.228Z,21.91
2022-08-19T10:13:15.949Z,21.90
2022-08-19T10:15:47.750Z,21.91
2022-08-19T10:18:19.098Z,21.92
2022-08-19T10:20:51.334Z,21.98
2022-08-19T10:23:20.104Z,21.97
2022-08-19T10:25:46.990Z,21.93
2022-08-19T10:28:14.739Z,21.94
2022-08-19T10:30:42.822Z,22.00
2022-08-19T10:33:11.179Z,21.92
2022-08-19T10:35:42.765Z,22.00
2022-08-19T10:38:30.609Z,22.02
2022-08-19T10:40:59.500Z,22.03
2022-08-19T10:43:26.338Z,22.07
2022-08-19T10:45:56.444Z,22.09
2022-08-19T10:48:23.027Z,22.15
2022-08-19T10:51:08.185Z,22.17
2022-08-19T10:53:34.701Z,22.22
2022-08-19T10:56:21.268Z,22.24
2022-08-19T10:58:48.121Z,22.24
2022-08-19T11:01:14.655Z,22.22
2022-08-19T11:03:41.167Z,22.15
2022-08-19T11:06:09.755Z,22.12
2022-08-19T11:08:38.686Z,22.17
2022-08-19T11:11:07.009Z,22.16
2022-08-19T11:13:37.084Z,22.29
2022-08-19T11:16:26.586Z,22.33
2022-08-19T11:18:59.312Z,22.23
2022-08-19T11:21:27.469Z,22.15
2022-08-19T11:23:59.112Z,22.12
2022-08-19T11:26:25.970Z,21.98
2022-08-19T11:28:55.184Z,21.88
2022-08-19T11:31:28.766Z,21.85
2022-08-19T11:33:58.135Z,21.80
2022-08-19T11:36:24.688Z,21.80
2022-08-19T11:38:51.727Z,21.71
2022-08-19T11:41:20.716Z,21.68
2022-08-19T11:43:47.769Z,21.54
2022-08-19T11:46:16.535Z,21.52
2022-08-19T11:48:43.766Z,21.50
2022-08-19T11:51:13.407Z,21.44
2022-08-19T11:53:40.415Z,21.32
2022-08-19T11:56:08.453Z,21.20
2022-08-19T11:58:35.812Z,21.24
2022-08-19T12:01:02.533Z,21.24
2022-08-19T12:03:29.056Z,21.31
2022-08-19T12:05:55.717Z,21.31
2022-08-19T12:08:22.156Z,21.35
2022-08-19T12:10:48.693Z,21.33
2022-08-19T12:13:19.547Z,21.36
2022-08-19T12:15:48.278Z,21.41
2022-08-19T12:18:15.340Z,21.42
2022-08-19T12:20:44.028Z,21.38
2022-08-19T12:23:10.932Z,21.32
2022-08-19T12:25:50.863Z,21.34
2022-08-19T12:28:17.838Z,21.27
2022-08-19T12:30:44.338Z,21.15
2022-08-19T12:33:10.795Z,21.11
2022-08-19T12:35:45.217Z,21.09
2022-08-19T12:38:12.548Z,21.09
2022-08-19T12:40:40.952Z,21.04
2022-08-19T12:43:08.415Z,21.01
2022-08-19T12:45:35.468Z,21.01
2022-08-19T12:48:03.786Z,21.03
2022-08-19T12:50:50.483Z,21.03
2022-08-19T12:53:17.112Z,21.13
2022-08-19T12:55:46.425Z,21.11
2022-08-19T12:58:13.550Z,21.02
2022-08-19T13:00:40.803Z,20.99
2022-08-19T13:03:07.293Z,20.95
2022-08-19T13:05:37.073Z,20.93
2022-08-19T13:08:03.807Z,20.84
2022-08-19T13:10:35.751Z,20.84
2022-08-19T13:13:08.206Z,20.84
2022-08-19T13:15:37.120Z,20.80
2022-08-19T13:18:04.398Z,20.85
2022-08-19T13:20:31.029Z,20.82
2022-08-19T13:22:58.220Z,20.85
2022-08-19T13:25:26.387Z,20.93
2022-08-19T13:27:53.541Z,20.94
2022-08-19T13:30:39.746Z,20.98
2022-08-19T13:33:12.393Z,21.11
2022-08-19T13:35:50.822Z,21.09
2022-08-19T13:38:20.162Z,21.08
2022-08-19T13:40:47.560Z,21.11
2022-08-19T13:43:22.962Z,21.10
2022-08-19T13:45:58.591Z,21.13
2022-08-19T13:48:27.514Z,21.17
2022-08-19T13:50:56.994Z,21.15
2022-08-19T13:53:23.566Z,21.01
2022-08-19T13:55:53.267Z,20.94
2022-08-19T13:58:25.005Z,20.86
2022-08-19T14:00:51.842Z,20.86
2022-08-19T14:03:18.516Z,20.83
2022-08-19T14:05:45.129Z,20.86
2022-08-19T14:08:13.194Z,20.84
2022-08-19T14:10:40.138Z,20.88
2022-08-19T14:13:06.557Z,20.91
2022-08-19T14:15:33.185Z,20.88
2022-08-19T14:17:59.729Z,20.85
2022-08-19T14:20:26.696Z,20.78
2022-08-19T14:22:54.886Z,20.88
2022-08-19T14:25:26.792Z,20.86
2022-08-19T14:27:53.806Z,20.75
2022-08-19T14:30:29.139Z,20.63
2022-08-19T14:32:59.101Z,20.66
2022-08-19T14:35:27.685Z,20.69
2022-08-19T14:37:56.716Z,20.62
2022-08-19T14:40:26.949Z,20.67
2022-08-19T14:43:01.184Z,20.73
2022-08-19T14:45:29.601Z,20.72
2022-08-19T14:47:56.330Z,20.74
2022-08-19T14:50:23.469Z,20.72
2022-08-19T14:52:50.635Z,20.76
2022-08-19T14:55:18.216Z,20.76
2022-08-19T14:57:45.445Z,20.73
2022-08-19T15:00:13.986Z,20.72
2022-08-19T15:02:46.635Z,20.72
2022-08-19T15:05:13.688Z,20.73
2022-08-19T15:07:41.249Z,20.68
2022-08-19T15:10:08.983Z,20.60
2022-08-19T15:12:36.094Z,20.57
2022-08-19T15:15:04.933Z,20.52
2022-08-19T15:17:43.456Z,20.49
2022-08-19T15:20:17.157Z,20.49
2022-08-19T15:22:43.670Z,20.48
2022-08-19T15:25:12.929Z,20.48
2022-08-19T15:27:41.480Z,20.48
2022-08-19T15:30:09.337Z,20.47
2022-08-19T15:32:37.411Z,20.42
2022-08-19T15:35:06.248Z,20.43
2022-08-19T15:37:37.029Z,20.41
2022-08-19T15:40:08.957Z,20.32
2022-08-19T15:42:39.046Z,20.37
2022-08-19T15:45:06.642Z,20.31
2022-08-19T15:47:34.846Z,20.25
2022-08-19T15:50:21.336Z,20.30
2022-08-19T15:52:53.934Z,20.21
2022-08-19T15:55:33.031Z,20.20
2022-08-19T15:58:28.933Z,20.15
2022-08-19T16:01:21.162Z,20.18
2022-08-19T16:04:14.140Z,20.14
2022-08-19T16:06:47.860Z,20.19
2022-08-19T16:09:15.647Z,20.13
2022-08-19T16:11:45.785Z,20.07
2022-08-19T16:14:14.566Z,19.96
2022-08-19T16:16:41.051Z,19.84
2022-08-19T16:19:10.406Z,19.80
2022-08-19T16:21:41.779Z,19.86
2022-08-19T16:24:10.754Z,19.71
2022-08-19T16:26:37.381Z,19.69
2022-08-19T16:29:08.758Z,19.59
2022-08-19T16:31:38.541Z,19.46
2022-08-19T16:34:06.062Z,19.36
2022-08-19T16:36:33.768Z,19.29
2022-08-19T16:39:01.113Z,19.28
2022-08-19T16:41:28.608Z,19.26
2022-08-19T16:43:55.337Z,19.17
2022-08-19T16:46:23.332Z,19.14
2022-08-19T16:48:54.206Z,19.08
2022-08-19T16:51:22.567Z,19.00
2022-08-19T16:53:49.674Z,19.05
2022-08-19T16:56:16.201Z,19.04
2022-08-19T16:58:43.195Z,18.97
2022-08-19T17:01:10.657Z,18.93
2022-08-19T17:03:39.893Z,18.92
2022-08-19T17:06:19.052Z,18.92
2022-08-19T17:08:50.071Z,18.96
2022-08-19T17:11:18.948Z,18.96
2022-08-19T17:13:47.964Z,18.94
2022-08-19T17:16:15.851Z,18.94
2022-08-19T17:18:42.338Z,18.92
2022-08-19T17:21:08.847Z,18.94
2022-08-19T17:23:42.420Z,18.94
2022-08-19T17:26:14.017Z,18.93
2022-08-19T17:28:45.445Z,18.95
2022-08-19T17:31:12.105Z,18.95
2022-08-19T17:33:41.345Z,18.94
2022-08-19T17:36:08.976Z,18.95
2022-08-19T17:38:36.975Z,18.94
2022-08-19T17:41:06.375Z,18.93
2022-08-19T17:43:38.939Z,18.95
2022-08-19T17:46:11.101Z,18.93
2022-08-19T17:48:38.859Z,18.94
2022-08-19T17:51:14.828Z,18.87
2022-08-19T17:53:41.421Z,18.81
2022-08-19T17:56:07.962Z,18.80
2022-08-19T17:58:34.642Z,18.78
2022-08-19T18:01:02.773Z,18.76
2022-08-19T18:03:30.214Z,18.75
2022-08-19T18:05:57.074Z,18.61
2022-08-19T18:08:23.956Z,18.57
2022-08-19T18:10:50.766Z,18.53
2022-08-19T18:13:18.102Z,18.45
2022-08-19T18:15:44.649Z,18.42
2022-08-19T18:18:14.934Z,18.28
2022-08-19T18:20:42.458Z,18.20
2022-08-19T18:23:43.911Z,18.16
2022-08-19T18:25:56.122Z,18.10
2022-08-19T18:28:23.834Z,18.07
2022-08-19T18:30:50.263Z,18.06
2022-08-19T18:33:16.830Z,18.09
2022-08-19T18:35:49.408Z,18.08
2022-08-19T18:38:37.654Z,18.02
2022-08-19T18:41:23.513Z,18.01
2022-08-19T18:44:08.806Z,18.04
2022-08-19T18:46:54.034Z,18.00
2022-08-19T18:49:27.738Z,17.95
2022-08-19T18:51:55.787Z,17.93
2022-08-19T18:54:23.917Z,17.90
2022-08-19T18:56:55.553Z,17.88
2022-08-19T18:59:27.481Z,17.82
2022-08-19T19:01:56.615Z,17.79
2022-08-19T19:04:29.352Z,17.80
2022-08-19T19:06:55.844Z,17.81
2022-08-19T19:09:24.623Z,17.79
2022-08-19T19:11:58.016Z,17.79
2022-08-19T19:14:48.741Z,17.76
2022-08-19T19:17:15.915Z,17.74
2022-08-19T19:19:42.903Z,17.73
2022-08-19T19:22:12.561Z,17.73
2022-08-19T19:24:44.137Z,17.72
2022-08-19T19:27:12.959Z,17.75
2022-08-19T19:29:40.841Z,17.76
2022-08-19T19:32:11.594Z,17.79
2022-08-19T19:34:39.467Z,17.74
2022-08-19T19:37:05.987Z,17.71
2022-08-19T19:39:45.092Z,17.69
2022-08-19T19:42:20.555Z,17.68
2022-08-19T19:44:50.105Z,17.72
2022-08-19T19:47:17.477Z,17.72
2022-08-19T19:52:38.440Z,17.61
2022-08-19T19:55:05.518Z,17.60
2022-08-19T19:57:32.040Z,17.58
2022-08-19T19:59:58.719Z,17.56
2022-08-19T20:02:25.322Z,17.54
2022-08-19T20:04:52.092Z,17.52
2022-08-19T20:07:38.672Z,17.57
2022-08-19T20:10:05.703Z,17.57
2022-08-19T20:12:32.132Z,17.53
2022-08-19T20:14:58.601Z,17.51
2022-08-19T20:17:25.042Z,17.51
2022-08-19T20:19:51.495Z,17.52
2022-08-19T20:22:19.038Z,17.52
2022-08-19T20:24:45.762Z,17.48
2022-08-19T20:27:12.635Z,17.47
2022-08-19T20:29:41.481Z,17.47
2022-08-19T20:32:10.357Z,17.45
2022-08-19T20:34:37.316Z,17.44
2022-08-19T20:37:04.705Z,17.44
2022-08-19T20:39:31.288Z,17.41
2022-08-19T20:41:57.818Z,17.41
2022-08-19T20:44:27.177Z,17.37
2022-08-19T20:46:54.753Z,17.35
2022-08-19T20:49:27.014Z,17.31
2022-08-19T20:51:54.742Z,17.29
2022-08-19T20:54:21.724Z,17.25
2022-08-19T20:56:48.299Z,17.25
2022-08-19T20:59:14.888Z,17.24
2022-08-19T21:01:41.576Z,17.25
2022-08-19T21:04:08.096Z,17.25
2022-08-19T21:06:34.641Z,17.25
2022-08-19T21:09:01.264Z,17.27
2022-08-19T21:11:27.779Z,17.24
2022-08-19T21:13:54.340Z,17.22
2022-08-19T21:16:20.776Z,17.23
2022-08-19T21:18:48.444Z,17.24
2022-08-19T21:21:15.903Z,17.28
2022-08-19T21:23:44.095Z,17.27
2022-08-19T21:26:11.025Z,17.28
2022-08-19T21:28:37.693Z,17.25
2022-08-19T21:31:06.377Z,17.22
2022-08-19T21:33:55.557Z,17.24
2022-08-19T21:36:39.936Z,17.26
2022-08-19T21:39:06.657Z,17.24
2022-08-19T21:41:33.178Z,17.25
2022-08-19T21:43:59.784Z,17.26
2022-08-19T21:46:26.282Z,17.24
2022-08-19T21:48:52.760Z,17.23
2022-08-19T21:51:19.362Z,17.25
2022-08-19T21:53:47.904Z,17.24
2022-08-19T21:56:15.156Z,17.21
2022-08-19T21:58:41.680Z,17.19
2022-08-19T22:01:09.157Z,17.18
2022-08-19T22:03:37.500Z,17.17
2022-08-19T22:06:06.644Z,17.17
2022-08-19T22:08:33.131Z,17.16
2022-08-19T22:10:59.678Z,17.20
2022-08-19T22:13:27.681Z,17.20
2022-08-19T22:15:55.268Z,17.20
2022-08-19T22:18:22.037Z,17.19
2022-08-19T22:20:48.622Z,17.21
2022-08-19T22:23:15.091Z,17.18
2022-08-19T22:25:46.004Z,17.19
2022-08-19T22:28:18.756Z,17.18
2022-08-19T22:30:56.474Z,17.17
2022-08-19T22:33:23.895Z,17.13
2022-08-19T22:35:52.371Z,17.18
2022-08-19T22:38:19.360Z,17.19
2022-08-19T22:40:48.417Z,17.16
2022-08-19T22:43:19.945Z,17.15
2022-08-19T22:45:48.097Z,17.16
2022-08-19T22:48:16.285Z,17.16
2022-08-19T22:51:04.932Z,17.17
2022-08-19T22:53:36.883Z,17.14
2022-08-19T22:56:06.577Z,17.14
2022-08-19T22:58:33.111Z,17.11
2022-08-19T23:00:59.900Z,17.12
2022-08-19T23:03:26.690Z,17.10
2022-08-19T23:05:56.040Z,17.09
2022-08-19T23:08:23.469Z,17.13
2022-08-19T23:10:50.207Z,17.10
2022-08-19T23:13:17.920Z,17.11
2022-08-19T23:15:46.120Z,17.13
2022-08-19T23:18:14.173Z,17.13
2022-08-19T23:20:44.775Z,17.13
2022-08-19T23:23:24.274Z,17.14
2022-08-19T23:25:56.264Z,17.15
2022-08-19T23:28:42.496Z,17.17
2022-08-19T23:31:09.284Z,17.17
2022-08-19T23:33:51.377Z,17.16
2022-08-19T23:36:19.828Z,17.21
2022-08-19T23:38:48.296Z,17.19
2022-08-19T23:41:17.326Z,17.16
2022-08-19T23:43:44.625Z,17.14
2022-08-19T23:46:13.554Z,17.20
2022-08-19T23:48:40.374Z,17.15
2022-08-19T23:51:09.528Z,17.12
2022-08-19T23:53:41.247Z,17.16
2022-08-19T23:56:09.983Z,17.12
2022-08-19T23:58:37.849Z,17.10
